sensor_id;sensor_type;location;lat;lon;timestamp;temperature;humidity
46340;DHT22;47273;49.274;8.708;2022-11-24T04:31:15;10.20;99.90
46340;DHT22;47273;49.274;8.708;2022-11-24T04:33:41;10.20;99.90
46340;DHT22;47273;49.274;8.708;2022-11-24T04:36:07;10.20;99.90
46340;DHT22;47273;49.274;8.708;2022-11-24T04:38:32;10.10;99.90
46340;DHT22;47273;49.274;8.708;2022-11-24T04:41:02;10.10;99.90
46340;DHT22;47273;49.274;8.708;2022-11-24T04:43:28;10.10;99.90
46340;DHT22;47273;49.274;8.708;2022-11-24T04:45:54;10.10;99.90
46340;DHT22;47273;49.274;8.708;2022-11-24T04:48:20;10.10;99.90
46340;DHT22;47273;49.274;8.708;2022-11-24T04:50:46;10.10;99.90
46340;DHT22;47273;49.274;8.708;2022-11-24T04:53:12;10.10;99.90
46340;DHT22;47273;49.274;8.708;2022-11-24T04:55:39;10.10;99.90
46340;DHT22;47273;49.274;8.708;2022-11-24T04:58:07;10.10;99.90
46340;DHT22;47273;49.274;8.708;2022-11-24T05:00:34;10.10;99.90
46340;DHT22;47273;49.274;8.708;2022-11-24T05:02:59;10.10;99.90
46340;DHT22;47273;49.274;8.708;2022-11-24T05:05:25;10.10;99.90
46340;DHT22;47273;49.274;8.708;2022-11-24T05:07:51;10.10;99.90
46340;DHT22;47273;49.274;8.708;2022-11-24T05:10:16;10.00;99.90
46340;DHT22;47273;49.274;8.708;2022-11-24T05:13:05;10.00;99.90
46340;DHT22;47273;49.274;8.708;2022-11-24T05:15:31;10.00;99.90
46340;DHT22;47273;49.274;8.708;2022-11-24T05:17:57;10.10;99.90
46340;DHT22;47273;49.274;8.708;2022-11-24T05:20:23;10.10;99.90
46340;DHT22;47273;49.274;8.708;2022-11-24T05:22:50;10.10;99.90
46340;DHT22;47273;49.274;8.708;2022-11-24T05:25:16;10.00;99.90
46340;DHT22;47273;49.274;8.708;2022-11-24T05:27:41;10.00;99.90
46340;DHT22;47273;49.274;8.708;2022-11-24T05:30:08;10.00;99.90
46340;DHT22;47273;49.274;8.708;2022-11-24T05:32:34;10.00;99.90
46340;DHT22;47273;49.274;8.708;2022-11-24T05:35:00;10.00;99.90
46340;DHT22;47273;49.274;8.708;2022-11-24T05:37:30;10.00;99.90
46340;DHT22;47273;49.274;8.708;2022-11-24T05:39:55;10.00;99.90
46340;DHT22;47273;49.274;8.708;2022-11-24T05:42:21;10.00;99.90
46340;DHT22;47273;49.274;8.708;2022-11-24T05:45:10;10.10;99.90
46340;DHT22;47273;49.274;8.708;2022-11-24T05:47:36;10.10;99.90
46340;DHT22;47273;49.274;8.708;2022-11-24T05:50:02;10.00;99.90
46340;DHT22;47273;49.274;8.708;2022-11-24T05:52:28;10.10;99.90
46340;DHT22;47273;49.274;8.708;2022-11-24T05:54:54;10.10;99.90
46340;DHT22;47273;49.274;8.708;2022-11-24T05:57:19;10.10;99.90
46340;DHT22;47273;49.274;8.708;2022-11-24T05:59:45;10.10;99.90
46340;DHT22;47273;49.274;8.708;2022-11-24T06:02:11;10.10;99.90
46340;DHT22;47273;49.274;8.708;2022-11-24T06:04:37;10.10;99.90
46340;DHT22;47273;49.274;8.708;2022-11-24T06:07:05;10.10;99.90
46340;DHT22;47273;49.274;8.708;2022-11-24T06:09:31;10.10;99.90
46340;DHT22;47273;49.274;8.708;2022-11-24T06:11:56;10.10;99.90
46340;DHT22;47273;49.274;8.708;2022-11-24T06:14:22;10.10;99.90
46340;DHT22;47273;49.274;8.708;2022-11-24T06:16:48;10.10;99.90
46340;DHT22;47273;49.274;8.708;2022-11-24T06:19:14;10.10;99.90
46340;DHT22;47273;49.274;8.708;2022-11-24T06:21:40;10.10;99.90
46340;DHT22;47273;49.274;8.708;2022-11-24T06:24:06;10.20;99.90
46340;DHT22;47273;49.274;8.708;2022-11-24T06:26:32;10.20;99.90
46340;DHT22;47273;49.274;8.708;2022-11-24T06:28:58;10.10;99.90
46340;DHT22;47273;49.274;8.708;2022-11-24T06:31:24;10.10;99.90
46340;DHT22;47273;49.274;8.708;2022-11-24T06:33:49;10.10;99.90
46340;DHT22;47273;49.274;8.708;2022-11-24T06:36:15;10.10;99.90
46340;DHT22;47273;49.274;8.708;2022-11-24T06:38:41;10.10;99.90
46340;DHT22;47273;49.274;8.708;2022-11-24T06:41:10;10.10;99.90
46340;DHT22;47273;49.274;8.708;2022-11-24T06:43:36;10.10;99.90
46340;DHT22;47273;49.274;8.708;2022-11-24T06:46:02;10.10;99.90
46340;DHT22;47273;49.274;8.708;2022-11-24T06:48:28;10.10;99.90
46340;DHT22;47273;49.274;8.708;2022-11-24T06:51:02;10.10;99.90
46340;DHT22;47273;49.274;8.708;2022-11-24T06:53:32;10.10;99.90
46340;DHT22;47273;49.274;8.708;2022-11-24T06:56:03;10.10;99.90
46340;DHT22;47273;49.274;8.708;2022-11-24T06:58:29;10.00;99.90
46340;DHT22;47273;49.274;8.708;2022-11-24T07:00:55;10.00;99.90
46340;DHT22;47273;49.274;8.708;2022-11-24T07:03:21;10.00;99.90
46340;DHT22;47273;49.274;8.708;2022-11-24T07:05:47;10.10;99.90
46340;DHT22;47273;49.274;8.708;2022-11-24T07:08:13;10.10;99.90
46340;DHT22;47273;49.274;8.708;2022-11-24T07:10:38;10.10;99.90
46340;DHT22;47273;49.274;8.708;2022-11-24T07:13:07;10.10;99.90
46340;DHT22;47273;49.274;8.708;2022-11-24T07:15:33;10.10;99.90
46340;DHT22;47273;49.274;8.708;2022-11-24T07:17:59;10.10;99.90
46340;DHT22;47273;49.274;8.708;2022-11-24T07:20:25;10.00;99.90
46340;DHT22;47273;49.274;8.708;2022-11-24T07:22:54;10.00;99.90
46340;DHT22;47273;49.274;8.708;2022-11-24T07:25:21;10.00;99.90
46340;DHT22;47273;49.274;8.708;2022-11-24T07:27:46;10.00;99.90
46340;DHT22;47273;49.274;8.708;2022-11-24T07:30:12;10.00;99.90
46340;DHT22;47273;49.274;8.708;2022-11-24T07:32:38;10.10;99.90
46340;DHT22;47273;49.274;8.708;2022-11-24T07:35:04;10.00;99.90
46340;DHT22;47273;49.274;8.708;2022-11-24T07:37:30;10.00;99.90
46340;DHT22;47273;49.274;8.708;2022-11-24T07:39:55;10.00;99.90
46340;DHT22;47273;49.274;8.708;2022-11-24T07:42:21;10.10;99.90
46340;DHT22;47273;49.274;8.708;2022-11-24T07:44:47;10.10;99.90
46340;DHT22;47273;49.274;8.708;2022-11-24T07:47:12;10.00;99.90
46340;DHT22;47273;49.274;8.708;2022-11-24T07:49:38;10.00;99.90
46340;DHT22;47273;49.274;8.708;2022-11-24T07:52:04;10.00;99.90
46340;DHT22;47273;49.274;8.708;2022-11-24T07:54:30;10.00;99.90
46340;DHT22;47273;49.274;8.708;2022-11-24T07:56:55;10.10;99.90
46340;DHT22;47273;49.274;8.708;2022-11-24T07:59:21;10.10;99.90
46340;DHT22;47273;49.274;8.708;2022-11-24T08:01:47;10.00;99.90
46340;DHT22;47273;49.274;8.708;2022-11-24T08:04:12;10.00;99.90
46340;DHT22;47273;49.274;8.708;2022-11-24T08:06:38;9.90;99.90
46340;DHT22;47273;49.274;8.708;2022-11-24T08:09:04;9.90;99.90
46340;DHT22;47273;49.274;8.708;2022-11-24T08:11:30;9.90;99.90
46340;DHT22;47273;49.274;8.708;2022-11-24T08:13:57;9.90;99.90
46340;DHT22;47273;49.274;8.708;2022-11-24T08:16:23;9.90;99.90
46340;DHT22;47273;49.274;8.708;2022-11-24T08:18:50;9.90;99.90
46340;DHT22;47273;49.274;8.708;2022-11-24T08:21:16;9.90;99.90
46340;DHT22;47273;49.274;8.708;2022-11-24T08:23:42;9.90;99.90
46340;DHT22;47273;49.274;8.708;2022-11-24T08:26:10;9.90;99.90
46340;DHT22;47273;49.274;8.708;2022-11-24T08:28:38;9.90;99.90
46340;DHT22;47273;49.274;8.708;2022-11-24T08:31:08;9.90;99.90
46340;DHT22;47273;49.274;8.708;2022-11-24T08:33:35;9.90;99.90
46340;DHT22;47273;49.274;8.708;2022-11-24T08:36:08;9.80;99.90
46340;DHT22;47273;49.274;8.708;2022-11-24T08:38:34;9.80;99.90
46340;DHT22;47273;49.274;8.708;2022-11-24T08:41:08;9.80;99.90
46340;DHT22;47273;49.274;8.708;2022-11-24T08:43:34;9.80;99.90
46340;DHT22;47273;49.274;8.708;2022-11-24T08:46:06;9.90;99.90
46340;DHT22;47273;49.274;8.708;2022-11-24T08:48:32;9.90;99.90
46340;DHT22;47273;49.274;8.708;2022-11-24T08:51:04;9.90;99.90
46340;DHT22;47273;49.274;8.708;2022-11-24T08:53:30;9.90;99.90
46340;DHT22;47273;49.274;8.708;2022-11-24T08:55:58;9.90;99.90
46340;DHT22;47273;49.274;8.708;2022-11-24T08:58:24;9.90;99.90
46340;DHT22;47273;49.274;8.708;2022-11-24T09:00:50;9.90;99.90
46340;DHT22;47273;49.274;8.708;2022-11-24T09:03:16;10.00;99.90
46340;DHT22;47273;49.274;8.708;2022-11-24T09:05:41;10.10;99.90
46340;DHT22;47273;49.274;8.708;2022-11-24T09:08:07;10.10;99.90
46340;DHT22;47273;49.274;8.708;2022-11-24T09:10:33;10.10;99.90
46340;DHT22;47273;49.274;8.708;2022-11-24T09:12:58;10.10;99.90
46340;DHT22;47273;49.274;8.708;2022-11-24T09:15:24;10.10;99.90
46340;DHT22;47273;49.274;8.708;2022-11-24T09:17:50;10.10;99.90
46340;DHT22;47273;49.274;8.708;2022-11-24T09:20:15;10.10;99.90
46340;DHT22;47273;49.274;8.708;2022-11-24T09:22:41;10.10;99.90
46340;DHT22;47273;49.274;8.708;2022-11-24T09:25:07;10.10;99.90
46340;DHT22;47273;49.274;8.708;2022-11-24T09:27:33;10.10;99.90
46340;DHT22;47273;49.274;8.708;2022-11-24T09:29:59;10.10;99.90
46340;DHT22;47273;49.274;8.708;2022-11-24T09:32:25;10.20;99.90
46340;DHT22;47273;49.274;8.708;2022-11-24T09:34:51;10.20;99.90
46340;DHT22;47273;49.274;8.708;2022-11-24T09:37:17;10.20;99.90
46340;DHT22;47273;49.274;8.708;2022-11-24T09:39:43;10.30;99.90
46340;DHT22;47273;49.274;8.708;2022-11-24T09:42:28;10.30;99.90
46340;DHT22;47273;49.274;8.708;2022-11-24T09:47:59;10.20;99.90
46340;DHT22;47273;49.274;8.708;2022-11-24T09:55:49;10.20;99.90
46340;DHT22;47273;49.274;8.708;2022-11-24T09:58:44;10.30;99.90
46340;DHT22;47273;49.274;8.708;2022-11-24T10:01:15;10.30;99.90
46340;DHT22;47273;49.274;8.708;2022-11-24T10:03:44;10.40;99.90
46340;DHT22;47273;49.274;8.708;2022-11-24T10:06:21;10.30;99.90
46340;DHT22;47273;49.274;8.708;2022-11-24T10:11:57;10.50;99.90
46340;DHT22;47273;49.274;8.708;2022-11-24T10:17:15;10.70;99.90
46340;DHT22;47273;49.274;8.708;2022-11-24T10:22:22;10.70;99.90
46340;DHT22;47273;49.274;8.708;2022-11-24T10:27:57;10.70;99.90
46340;DHT22;47273;49.274;8.708;2022-11-24T10:30:25;10.70;99.90
46340;DHT22;47273;49.274;8.708;2022-11-24T10:35:34;10.90;99.90
46340;DHT22;47273;49.274;8.708;2022-11-24T10:40:49;11.00;99.90
46340;DHT22;47273;49.274;8.708;2022-11-24T10:43:18;10.90;99.90
46340;DHT22;47273;49.274;8.708;2022-11-24T10:45:44;10.90;99.90
46340;DHT22;47273;49.274;8.708;2022-11-24T10:48:20;11.10;99.90
46340;DHT22;47273;49.274;8.708;2022-11-24T10:50:46;11.10;99.90
46340;DHT22;47273;49.274;8.708;2022-11-24T10:53:17;11.30;99.90
46340;DHT22;47273;49.274;8.708;2022-11-24T10:58:36;11.60;99.90
46340;DHT22;47273;49.274;8.708;2022-11-24T11:01:18;11.80;99.90
46340;DHT22;47273;49.274;8.708;2022-11-24T11:03:55;12.00;99.90
46340;DHT22;47273;49.274;8.708;2022-11-24T11:06:23;11.90;99.90
46340;DHT22;47273;49.274;8.708;2022-11-24T11:08:49;11.90;99.90
46340;DHT22;47273;49.274;8.708;2022-11-24T11:11:35;12.00;99.90
46340;DHT22;47273;49.274;8.708;2022-11-24T11:14:09;12.00;99.90
46340;DHT22;47273;49.274;8.708;2022-11-24T11:16:54;12.00;99.90
46340;DHT22;47273;49.274;8.708;2022-11-24T11:19:41;11.90;99.90
46340;DHT22;47273;49.274;8.708;2022-11-24T11:24:41;12.00;99.90
46340;DHT22;47273;49.274;8.708;2022-11-24T11:27:19;12.00;99.90
46340;DHT22;47273;49.274;8.708;2022-11-24T11:29:45;12.00;99.90
46340;DHT22;47273;49.274;8.708;2022-11-24T11:32:20;12.00;99.90
46340;DHT22;47273;49.274;8.708;2022-11-24T11:34:47;11.90;99.90
46340;DHT22;47273;49.274;8.708;2022-11-24T11:37:14;12.00;99.90
46340;DHT22;47273;49.274;8.708;2022-11-24T11:39:44;12.00;99.90
46340;DHT22;47273;49.274;8.708;2022-11-24T11:45:13;11.90;99.90
46340;DHT22;47273;49.274;8.708;2022-11-24T11:50:14;12.00;99.90
46340;DHT22;47273;49.274;8.708;2022-11-24T11:52:53;12.30;99.90
46340;DHT22;47273;49.274;8.708;2022-11-24T11:58:26;12.60;99.90
46340;DHT22;47273;49.274;8.708;2022-11-24T12:04:15;13.30;99.90
46340;DHT22;47273;49.274;8.708;2022-11-24T12:26:44;13.90;99.90
46340;DHT22;47273;49.274;8.708;2022-11-24T12:50:59;12.70;99.90
46340;DHT22;47273;49.274;8.708;2022-11-24T12:53:31;12.60;99.90
46340;DHT22;47273;49.274;8.708;2022-11-24T12:56:04;12.60;99.90
46340;DHT22;47273;49.274;8.708;2022-11-24T12:58:35;12.90;99.90
46340;DHT22;47273;49.274;8.708;2022-11-24T13:06:21;12.60;99.90
46340;DHT22;47273;49.274;8.708;2022-11-24T13:08:49;12.50;99.90
46340;DHT22;47273;49.274;8.708;2022-11-24T13:16:18;13.20;99.90
46340;DHT22;47273;49.274;8.708;2022-11-24T13:19:45;15.80;95.70
46340;DHT22;47273;49.274;8.708;2022-11-24T13:22:02;18.00;91.60
46340;DHT22;47273;49.274;8.708;2022-11-24T13:24:31;19.30;82.00
46340;DHT22;47273;49.274;8.708;2022-11-24T13:29:45;16.50;84.30
46340;DHT22;47273;49.274;8.708;2022-11-24T13:39:52;14.40;92.50
46340;DHT22;47273;49.274;8.708;2022-11-24T13:42:19;14.10;92.80
46340;DHT22;47273;49.274;8.708;2022-11-24T13:44:46;14.40;93.80
46340;DHT22;47273;49.274;8.708;2022-11-24T13:47:32;14.60;93.00
46340;DHT22;47273;49.274;8.708;2022-11-24T13:49:59;14.80;91.70
46340;DHT22;47273;49.274;8.708;2022-11-24T13:52:54;14.40;91.40
46340;DHT22;47273;49.274;8.708;2022-11-24T13:55:37;14.60;91.70
46340;DHT22;47273;49.274;8.708;2022-11-24T14:01:10;14.40;91.80
46340;DHT22;47273;49.274;8.708;2022-11-24T14:08:55;13.90;91.80
46340;DHT22;47273;49.274;8.708;2022-11-24T14:11:22;13.70;92.10
46340;DHT22;47273;49.274;8.708;2022-11-24T14:13:48;13.60;92.20
46340;DHT22;47273;49.274;8.708;2022-11-24T14:16:20;13.50;92.40
46340;DHT22;47273;49.274;8.708;2022-11-24T14:18:48;13.40;92.60
46340;DHT22;47273;49.274;8.708;2022-11-24T14:21:32;13.30;92.50
46340;DHT22;47273;49.274;8.708;2022-11-24T14:24:02;13.20;92.40
46340;DHT22;47273;49.274;8.708;2022-11-24T14:26:35;13.10;92.70
46340;DHT22;47273;49.274;8.708;2022-11-24T14:29:09;13.00;92.50
46340;DHT22;47273;49.274;8.708;2022-11-24T14:31:36;13.00;93.10
46340;DHT22;47273;49.274;8.708;2022-11-24T14:34:23;12.90;92.90
46340;DHT22;47273;49.274;8.708;2022-11-24T14:36:50;12.90;93.30
46340;DHT22;47273;49.274;8.708;2022-11-24T14:39:24;12.80;92.80
46340;DHT22;47273;49.274;8.708;2022-11-24T14:42:04;12.70;93.30
46340;DHT22;47273;49.274;8.708;2022-11-24T14:44:48;12.60;93.70
46340;DHT22;47273;49.274;8.708;2022-11-24T14:47:31;12.60;93.50
46340;DHT22;47273;49.274;8.708;2022-11-24T14:50:15;12.60;94.00
46340;DHT22;47273;49.274;8.708;2022-11-24T14:52:53;12.60;94.10
46340;DHT22;47273;49.274;8.708;2022-11-24T14:55:31;12.60;94.30
46340;DHT22;47273;49.274;8.708;2022-11-24T14:57:58;12.70;94.40
46340;DHT22;47273;49.274;8.708;2022-11-24T15:00:31;12.70;94.50
46340;DHT22;47273;49.274;8.708;2022-11-24T15:05:53;12.60;94.30
46340;DHT22;47273;49.274;8.708;2022-11-24T15:08:19;12.50;94.50
46340;DHT22;47273;49.274;8.708;2022-11-24T15:10:45;12.50;94.20
46340;DHT22;47273;49.274;8.708;2022-11-24T15:13:19;12.40;94.70
46340;DHT22;47273;49.274;8.708;2022-11-24T15:15:57;12.40;94.80
46340;DHT22;47273;49.274;8.708;2022-11-24T15:18:35;12.40;94.80
46340;DHT22;47273;49.274;8.708;2022-11-24T15:21:01;12.40;94.70
46340;DHT22;47273;49.274;8.708;2022-11-24T15:23:29;12.30;94.90
46340;DHT22;47273;49.274;8.708;2022-11-24T15:28:28;12.30;95.00
46340;DHT22;47273;49.274;8.708;2022-11-24T15:30:55;12.20;95.10
46340;DHT22;47273;49.274;8.708;2022-11-24T15:33:23;12.20;95.00
46340;DHT22;47273;49.274;8.708;2022-11-24T15:35:49;12.20;95.30
46340;DHT22;47273;49.274;8.708;2022-11-24T15:38:15;12.20;95.10
46340;DHT22;47273;49.274;8.708;2022-11-24T15:40:43;12.20;95.00
46340;DHT22;47273;49.274;8.708;2022-11-24T15:43:31;12.10;95.20
46340;DHT22;47273;49.274;8.708;2022-11-24T15:45:58;12.10;95.10
46340;DHT22;47273;49.274;8.708;2022-11-24T15:48:24;11.90;95.20
46340;DHT22;47273;49.274;8.708;2022-11-24T15:50:51;11.90;95.30
46340;DHT22;47273;49.274;8.708;2022-11-24T15:56:33;11.80;95.40
46340;DHT22;47273;49.274;8.708;2022-11-24T15:58:59;11.80;95.50
46340;DHT22;47273;49.274;8.708;2022-11-24T16:01:29;11.70;95.50
46340;DHT22;47273;49.274;8.708;2022-11-24T16:03:55;11.70;95.50
46340;DHT22;47273;49.274;8.708;2022-11-24T16:06:20;11.60;95.40
46340;DHT22;47273;49.274;8.708;2022-11-24T16:08:46;11.60;96.00
46340;DHT22;47273;49.274;8.708;2022-11-24T16:11:12;11.50;96.20
46340;DHT22;47273;49.274;8.708;2022-11-24T16:13:37;11.50;96.30
46340;DHT22;47273;49.274;8.708;2022-11-24T16:16:03;11.50;96.30
46340;DHT22;47273;49.274;8.708;2022-11-24T16:18:29;11.50;96.40
46340;DHT22;47273;49.274;8.708;2022-11-24T16:20:59;11.40;96.50
46340;DHT22;47273;49.274;8.708;2022-11-24T16:23:25;11.30;96.70
46340;DHT22;47273;49.274;8.708;2022-11-24T16:25:51;11.30;97.00
46340;DHT22;47273;49.274;8.708;2022-11-24T16:28:16;11.10;97.20
46340;DHT22;47273;49.274;8.708;2022-11-24T16:30:47;11.00;97.40
46340;DHT22;47273;49.274;8.708;2022-11-24T16:33:13;11.00;97.50
46340;DHT22;47273;49.274;8.708;2022-11-24T16:35:39;10.90;97.40
46340;DHT22;47273;49.274;8.708;2022-11-24T16:38:05;10.90;97.60
46340;DHT22;47273;49.274;8.708;2022-11-24T16:40:30;10.80;97.50
46340;DHT22;47273;49.274;8.708;2022-11-24T16:42:57;10.80;97.60
46340;DHT22;47273;49.274;8.708;2022-11-24T16:45:22;10.70;97.70
46340;DHT22;47273;49.274;8.708;2022-11-24T16:47:48;10.70;97.90
46340;DHT22;47273;49.274;8.708;2022-11-24T16:50:14;10.60;98.20
46340;DHT22;47273;49.274;8.708;2022-11-24T16:52:40;10.50;98.20
46340;DHT22;47273;49.274;8.708;2022-11-24T16:55:06;10.40;98.30
46340;DHT22;47273;49.274;8.708;2022-11-24T16:57:32;10.30;98.60
46340;DHT22;47273;49.274;8.708;2022-11-24T16:59:59;10.30;98.60
46340;DHT22;47273;49.274;8.708;2022-11-24T17:02:25;10.20;98.80
46340;DHT22;47273;49.274;8.708;2022-11-24T17:04:50;10.20;99.00
46340;DHT22;47273;49.274;8.708;2022-11-24T17:07:17;10.10;99.80
46340;DHT22;47273;49.274;8.708;2022-11-24T17:09:43;10.10;99.70
46340;DHT22;47273;49.274;8.708;2022-11-24T17:12:09;10.00;99.70
46340;DHT22;47273;49.274;8.708;2022-11-24T17:14:35;9.90;99.80
46340;DHT22;47273;49.274;8.708;2022-11-24T17:17:01;9.90;99.90
46340;DHT22;47273;49.274;8.708;2022-11-24T17:19:26;9.90;99.90
46340;DHT22;47273;49.274;8.708;2022-11-24T17:21:52;9.90;99.90
46340;DHT22;47273;49.274;8.708;2022-11-24T17:24:19;9.80;99.90
46340;DHT22;47273;49.274;8.708;2022-11-24T17:26:44;9.70;99.90
46340;DHT22;47273;49.274;8.708;2022-11-24T17:29:10;9.70;99.90
46340;DHT22;47273;49.274;8.708;2022-11-24T17:31:36;9.70;99.90
46340;DHT22;47273;49.274;8.708;2022-11-24T17:34:04;9.60;99.90
46340;DHT22;47273;49.274;8.708;2022-11-24T17:36:32;9.60;99.90
46340;DHT22;47273;49.274;8.708;2022-11-24T17:38:59;9.60;99.90
46340;DHT22;47273;49.274;8.708;2022-11-24T17:41:25;9.60;99.90
46340;DHT22;47273;49.274;8.708;2022-11-24T17:43:52;9.50;99.90
46340;DHT22;47273;49.274;8.708;2022-11-24T17:46:20;9.40;99.90
46340;DHT22;47273;49.274;8.708;2022-11-24T17:48:46;9.40;99.90
46340;DHT22;47273;49.274;8.708;2022-11-24T17:51:14;9.30;99.90
46340;DHT22;47273;49.274;8.708;2022-11-24T17:53:42;9.20;99.90
46340;DHT22;47273;49.274;8.708;2022-11-24T17:56:12;9.20;99.90
46340;DHT22;47273;49.274;8.708;2022-11-24T17:58:38;9.20;99.90
46340;DHT22;47273;49.274;8.708;2022-11-24T18:01:04;9.10;99.90
46340;DHT22;47273;49.274;8.708;2022-11-24T18:03:31;9.10;99.90
46340;DHT22;47273;49.274;8.708;2022-11-24T18:06:07;9.10;99.90
46340;DHT22;47273;49.274;8.708;2022-11-24T18:08:37;9.10;99.90
46340;DHT22;47273;49.274;8.708;2022-11-24T18:11:18;9.10;99.90
46340;DHT22;47273;49.274;8.708;2022-11-24T18:13:49;9.00;99.90
46340;DHT22;47273;49.274;8.708;2022-11-24T18:16:15;9.00;99.90
46340;DHT22;47273;49.274;8.708;2022-11-24T18:18:42;9.00;99.90
46340;DHT22;47273;49.274;8.708;2022-11-24T18:21:15;9.00;99.90
46340;DHT22;47273;49.274;8.708;2022-11-24T18:23:41;8.90;99.90
46340;DHT22;47273;49.274;8.708;2022-11-24T18:26:10;8.80;99.90
46340;DHT22;47273;49.274;8.708;2022-11-24T18:28:37;8.70;99.90
46340;DHT22;47273;49.274;8.708;2022-11-24T18:31:05;8.70;99.90
46340;DHT22;47273;49.274;8.708;2022-11-24T18:33:34;8.60;99.90
46340;DHT22;47273;49.274;8.708;2022-11-24T18:36:00;8.60;99.90
46340;DHT22;47273;49.274;8.708;2022-11-24T18:38:28;8.50;99.90
46340;DHT22;47273;49.274;8.708;2022-11-24T18:40:56;8.50;99.90
46340;DHT22;47273;49.274;8.708;2022-11-24T18:43:22;8.40;99.90
46340;DHT22;47273;49.274;8.708;2022-11-24T18:45:48;8.40;99.90
46340;DHT22;47273;49.274;8.708;2022-11-24T18:48:14;8.40;99.90
46340;DHT22;47273;49.274;8.708;2022-11-24T18:50:40;8.30;99.90
46340;DHT22;47273;49.274;8.708;2022-11-24T18:53:06;8.30;99.90
46340;DHT22;47273;49.274;8.708;2022-11-24T18:55:32;8.30;99.90
46340;DHT22;47273;49.274;8.708;2022-11-24T18:57:57;8.20;99.90
46340;DHT22;47273;49.274;8.708;2022-11-24T19:00:23;8.20;99.90
46340;DHT22;47273;49.274;8.708;2022-11-24T19:02:52;8.20;99.90
46340;DHT22;47273;49.274;8.708;2022-11-24T19:05:18;8.10;99.90
46340;DHT22;47273;49.274;8.708;2022-11-24T19:07:44;8.10;99.90
46340;DHT22;47273;49.274;8.708;2022-11-24T19:10:10;8.00;99.90
46340;DHT22;47273;49.274;8.708;2022-11-24T19:12:36;8.00;99.90
46340;DHT22;47273;49.274;8.708;2022-11-24T19:15:02;7.90;99.90
46340;DHT22;47273;49.274;8.708;2022-11-24T19:17:28;7.90;99.90
46340;DHT22;47273;49.274;8.708;2022-11-24T19:19:54;7.90;99.90
46340;DHT22;47273;49.274;8.708;2022-11-24T19:22:19;7.90;99.90
46340;DHT22;47273;49.274;8.708;2022-11-24T19:24:45;7.80;99.90
46340;DHT22;47273;49.274;8.708;2022-11-24T19:27:14;7.80;99.90
46340;DHT22;47273;49.274;8.708;2022-11-24T19:29:41;7.80;99.90
46340;DHT22;47273;49.274;8.708;2022-11-24T19:32:07;7.80;99.90
46340;DHT22;47273;49.274;8.708;2022-11-24T19:34:33;7.70;99.90
46340;DHT22;47273;49.274;8.708;2022-11-24T19:36:58;7.70;99.90
46340;DHT22;47273;49.274;8.708;2022-11-24T19:39:24;7.70;99.90
46340;DHT22;47273;49.274;8.708;2022-11-24T19:41:50;7.60;99.90
46340;DHT22;47273;49.274;8.708;2022-11-24T19:44:17;7.60;99.90
46340;DHT22;47273;49.274;8.708;2022-11-24T19:46:43;7.60;99.90
46340;DHT22;47273;49.274;8.708;2022-11-24T19:49:08;7.60;99.90
46340;DHT22;47273;49.274;8.708;2022-11-24T19:51:36;7.50;99.90
46340;DHT22;47273;49.274;8.708;2022-11-24T19:54:06;7.50;99.90
46340;DHT22;47273;49.274;8.708;2022-11-24T19:56:34;7.50;99.90
46340;DHT22;47273;49.274;8.708;2022-11-24T19:59:02;7.50;99.90
46340;DHT22;47273;49.274;8.708;2022-11-24T20:01:30;7.50;99.90
46340;DHT22;47273;49.274;8.708;2022-11-24T20:03:58;7.50;99.90
46340;DHT22;47273;49.274;8.708;2022-11-24T20:06:32;7.50;99.90
46340;DHT22;47273;49.274;8.708;2022-11-24T20:08:59;7.40;99.90
46340;DHT22;47273;49.274;8.708;2022-11-24T20:11:26;7.40;99.90
46340;DHT22;47273;49.274;8.708;2022-11-24T20:13:52;7.40;99.90
46340;DHT22;47273;49.274;8.708;2022-11-24T20:16:20;7.40;99.90
46340;DHT22;47273;49.274;8.708;2022-11-24T20:18:52;7.40;99.90
46340;DHT22;47273;49.274;8.708;2022-11-24T20:21:19;7.40;99.90
46340;DHT22;47273;49.274;8.708;2022-11-24T20:23:54;7.40;99.90
46340;DHT22;47273;49.274;8.708;2022-11-24T20:26:20;7.40;99.90
46340;DHT22;47273;49.274;8.708;2022-11-24T20:28:48;7.30;99.90
46340;DHT22;47273;49.274;8.708;2022-11-24T20:31:19;7.40;99.90
46340;DHT22;47273;49.274;8.708;2022-11-24T20:33:45;7.30;99.90
46340;DHT22;47273;49.274;8.708;2022-11-24T20:36:12;7.30;99.90
46340;DHT22;47273;49.274;8.708;2022-11-24T20:38:40;7.30;99.90
46340;DHT22;47273;49.274;8.708;2022-11-24T20:41:24;7.30;99.90
46340;DHT22;47273;49.274;8.708;2022-11-24T20:43:50;7.30;99.90
46340;DHT22;47273;49.274;8.708;2022-11-24T20:46:22;7.30;99.90
46340;DHT22;47273;49.274;8.708;2022-11-24T20:48:48;7.30;99.90
46340;DHT22;47273;49.274;8.708;2022-11-24T20:51:17;7.30;99.90
46340;DHT22;47273;49.274;8.708;2022-11-24T20:53:43;7.30;99.90
46340;DHT22;47273;49.274;8.708;2022-11-24T20:56:11;7.30;99.90
46340;DHT22;47273;49.274;8.708;2022-11-24T20:58:37;7.30;99.90
46340;DHT22;47273;49.274;8.708;2022-11-24T21:01:12;7.30;99.90
46340;DHT22;47273;49.274;8.708;2022-11-24T21:03:39;7.30;99.90
46340;DHT22;47273;49.274;8.708;2022-11-24T21:06:06;7.30;99.90
46340;DHT22;47273;49.274;8.708;2022-11-24T21:08:34;7.30;99.90
46340;DHT22;47273;49.274;8.708;2022-11-24T21:11:00;7.30;99.90
46340;DHT22;47273;49.274;8.708;2022-11-24T21:13:27;7.30;99.90
46340;DHT22;47273;49.274;8.708;2022-11-24T21:15:53;7.20;99.90
46340;DHT22;47273;49.274;8.708;2022-11-24T21:18:20;7.20;99.90
46340;DHT22;47273;49.274;8.708;2022-11-24T21:20:46;7.20;99.90
46340;DHT22;47273;49.274;8.708;2022-11-24T21:23:13;7.20;99.90
46340;DHT22;47273;49.274;8.708;2022-11-24T21:25:40;7.20;99.90
46340;DHT22;47273;49.274;8.708;2022-11-24T21:28:05;7.20;99.90
